sensor_id;sensor_type;location;lat;lon;timestamp;P1;durP1;ratioP1;P2;durP2;ratioP2
55372;SDS011;70018;47.838;16.490;2023-08-06T00:00:53;0.00;;;0.00;;
55372;SDS011;70018;47.838;16.490;2023-08-06T00:03:20;0.00;;;0.00;;
55372;SDS011;70018;47.838;16.490;2023-08-06T00:05:47;0.00;;;0.00;;
55372;SDS011;70018;47.838;16.490;2023-08-06T00:08:13;0.10;;;0.10;;
55372;SDS011;70018;47.838;16.490;2023-08-06T00:10:40;0.00;;;0.00;;
55372;SDS011;70018;47.838;16.490;2023-08-06T00:13:07;0.13;;;0.05;;
55372;SDS011;70018;47.838;16.490;2023-08-06T00:15:34;0.00;;;0.00;;
55372;SDS011;70018;47.838;16.490;2023-08-06T00:18:01;0.00;;;0.00;;
55372;SDS011;70018;47.838;16.490;2023-08-06T00:20:28;0.10;;;0.10;;
55372;SDS011;70018;47.838;16.490;2023-08-06T00:22:54;0.10;;;0.00;;
55372;SDS011;70018;47.838;16.490;2023-08-06T00:25:24;0.13;;;0.10;;
55372;SDS011;70018;47.838;16.490;2023-08-06T00:27:50;0.00;;;0.00;;
55372;SDS011;70018;47.838;16.490;2023-08-06T00:30:17;0.00;;;0.00;;
55372;SDS011;70018;47.838;16.490;2023-08-06T00:32:44;0.00;;;0.00;;
55372;SDS011;70018;47.838;16.490;2023-08-06T00:35:11;0.00;;;0.00;;
55372;SDS011;70018;47.838;16.490;2023-08-06T00:37:39;0.00;;;0.00;;
55372;SDS011;70018;47.838;16.490;2023-08-06T00:40:06;0.00;;;0.00;;
55372;SDS011;70018;47.838;16.490;2023-08-06T00:42:34;0.00;;;0.00;;
55372;SDS011;70018;47.838;16.490;2023-08-06T00:45:01;0.05;;;0.00;;
55372;SDS011;70018;47.838;16.490;2023-08-06T00:47:28;0.10;;;0.10;;
55372;SDS011;70018;47.838;16.490;2023-08-06T00:49:55;0.00;;;0.00;;
55372;SDS011;70018;47.838;16.490;2023-08-06T00:52:21;0.00;;;0.00;;
55372;SDS011;70018;47.838;16.490;2023-08-06T00:54:48;0.00;;;0.00;;
55372;SDS011;70018;47.838;16.490;2023-08-06T00:57:15;0.00;;;0.00;;
55372;SDS011;70018;47.838;16.490;2023-08-06T00:59:41;0.00;;;0.00;;
55372;SDS011;70018;47.838;16.490;2023-08-06T01:02:08;0.00;;;0.00;;
55372;SDS011;70018;47.838;16.490;2023-08-06T01:04:35;0.00;;;0.00;;
55372;SDS011;70018;47.838;16.490;2023-08-06T01:07:03;0.00;;;0.00;;
55372;SDS011;70018;47.838;16.490;2023-08-06T01:13:24;0.05;;;0.05;;
55372;SDS011;70018;47.838;16.490;2023-08-06T01:15:49;0.00;;;0.00;;
55372;SDS011;70018;47.838;16.490;2023-08-06T01:18:20;0.00;;;0.00;;
55372;SDS011;70018;47.838;16.490;2023-08-06T01:20:47;0.00;;;0.00;;
55372;SDS011;70018;47.838;16.490;2023-08-06T01:23:15;0.00;;;0.00;;
55372;SDS011;70018;47.838;16.490;2023-08-06T01:25:53;0.00;;;0.00;;
55372;SDS011;70018;47.838;16.490;2023-08-06T01:28:40;0.00;;;0.00;;
55372;SDS011;70018;47.838;16.490;2023-08-06T01:31:24;0.00;;;0.00;;
55372;SDS011;70018;47.838;16.490;2023-08-06T01:33:54;0.30;;;0.00;;
55372;SDS011;70018;47.838;16.490;2023-08-06T01:36:22;0.10;;;0.10;;
55372;SDS011;70018;47.838;16.490;2023-08-06T01:38:53;0.00;;;0.00;;
55372;SDS011;70018;47.838;16.490;2023-08-06T01:41:19;0.00;;;0.00;;
55372;SDS011;70018;47.838;16.490;2023-08-06T01:43:46;0.10;;;0.03;;
55372;SDS011;70018;47.838;16.490;2023-08-06T01:46:13;0.00;;;0.00;;
55372;SDS011;70018;47.838;16.490;2023-08-06T01:48:40;0.08;;;0.00;;
55372;SDS011;70018;47.838;16.490;2023-08-06T01:51:06;0.00;;;0.00;;
55372;SDS011;70018;47.838;16.490;2023-08-06T01:53:33;0.00;;;0.00;;
55372;SDS011;70018;47.838;16.490;2023-08-06T01:56:00;0.05;;;0.03;;
55372;SDS011;70018;47.838;16.490;2023-08-06T01:58:27;0.00;;;0.00;;
55372;SDS011;70018;47.838;16.490;2023-08-06T02:00:53;0.00;;;0.00;;
55372;SDS011;70018;47.838;16.490;2023-08-06T02:03:20;0.00;;;0.00;;
55372;SDS011;70018;47.838;16.490;2023-08-06T02:05:46;0.00;;;0.00;;
55372;SDS011;70018;47.838;16.490;2023-08-06T02:08:13;0.05;;;0.00;;
55372;SDS011;70018;47.838;16.490;2023-08-06T02:10:39;0.00;;;0.00;;
55372;SDS011;70018;47.838;16.490;2023-08-06T02:13:07;0.00;;;0.00;;
55372;SDS011;70018;47.838;16.490;2023-08-06T02:15:34;0.00;;;0.00;;
55372;SDS011;70018;47.838;16.490;2023-08-06T02:18:01;0.00;;;0.00;;
55372;SDS011;70018;47.838;16.490;2023-08-06T02:20:27;0.00;;;0.00;;
55372;SDS011;70018;47.838;16.490;2023-08-06T02:22:57;0.00;;;0.00;;
55372;SDS011;70018;47.838;16.490;2023-08-06T02:25:23;0.00;;;0.00;;
55372;SDS011;70018;47.838;16.490;2023-08-06T02:27:50;0.00;;;0.00;;
55372;SDS011;70018;47.838;16.490;2023-08-06T02:30:17;0.00;;;0.00;;
55372;SDS011;70018;47.838;16.490;2023-08-06T02:32:43;0.00;;;0.00;;
55372;SDS011;70018;47.838;16.490;2023-08-06T02:35:10;0.00;;;0.00;;
55372;SDS011;70018;47.838;16.490;2023-08-06T02:37:36;0.00;;;0.00;;
55372;SDS011;70018;47.838;16.490;2023-08-06T02:40:03;0.10;;;0.10;;
55372;SDS011;70018;47.838;16.490;2023-08-06T02:42:30;6.13;;;0.22;;
55372;SDS011;70018;47.838;16.490;2023-08-06T02:44:57;0.00;;;0.00;;
55372;SDS011;70018;47.838;16.490;2023-08-06T02:47:23;0.03;;;0.03;;
55372;SDS011;70018;47.838;16.490;2023-08-06T02:49:50;0.00;;;0.00;;
55372;SDS011;70018;47.838;16.490;2023-08-06T02:52:17;0.00;;;0.00;;
55372;SDS011;70018;47.838;16.490;2023-08-06T02:54:43;0.08;;;0.08;;
55372;SDS011;70018;47.838;16.490;2023-08-06T02:57:10;0.00;;;0.00;;
55372;SDS011;70018;47.838;16.490;2023-08-06T02:59:36;0.08;;;0.00;;
55372;SDS011;70018;47.838;16.490;2023-08-06T03:02:03;0.00;;;0.00;;
55372;SDS011;70018;47.838;16.490;2023-08-06T03:04:30;0.00;;;0.00;;
55372;SDS011;70018;47.838;16.490;2023-08-06T03:06:57;0.00;;;0.00;;
55372;SDS011;70018;47.838;16.490;2023-08-06T03:09:23;0.00;;;0.00;;
55372;SDS011;70018;47.838;16.490;2023-08-06T03:11:50;0.00;;;0.00;;
55372;SDS011;70018;47.838;16.490;2023-08-06T03:14:17;0.00;;;0.00;;
55372;SDS011;70018;47.838;16.490;2023-08-06T03:16:44;0.00;;;0.00;;
55372;SDS011;70018;47.838;16.490;2023-08-06T03:19:10;0.10;;;0.10;;
55372;SDS011;70018;47.838;16.490;2023-08-06T03:21:37;0.00;;;0.00;;
55372;SDS011;70018;47.838;16.490;2023-08-06T03:24:03;0.00;;;0.00;;
55372;SDS011;70018;47.838;16.490;2023-08-06T03:26:30;0.00;;;0.00;;
55372;SDS011;70018;47.838;16.490;2023-08-06T03:28:57;0.10;;;0.10;;
55372;SDS011;70018;47.838;16.490;2023-08-06T03:31:23;0.00;;;0.00;;
55372;SDS011;70018;47.838;16.490;2023-08-06T03:33:50;0.00;;;0.00;;
55372;SDS011;70018;47.838;16.490;2023-08-06T03:36:16;0.10;;;0.10;;
55372;SDS011;70018;47.838;16.490;2023-08-06T03:38:43;0.10;;;0.10;;
55372;SDS011;70018;47.838;16.490;2023-08-06T03:41:10;0.00;;;0.00;;
55372;SDS011;70018;47.838;16.490;2023-08-06T03:43:37;0.10;;;0.10;;
55372;SDS011;70018;47.838;16.490;2023-08-06T03:46:03;0.00;;;0.00;;
55372;SDS011;70018;47.838;16.490;2023-08-06T03:48:30;0.10;;;0.05;;
55372;SDS011;70018;47.838;16.490;2023-08-06T03:50:56;0.20;;;0.10;;
55372;SDS011;70018;47.838;16.490;2023-08-06T03:53:23;0.10;;;0.10;;
55372;SDS011;70018;47.838;16.490;2023-08-06T03:55:50;0.10;;;0.10;;
55372;SDS011;70018;47.838;16.490;2023-08-06T03:58:17;0.10;;;0.10;;
55372;SDS011;70018;47.838;16.490;2023-08-06T04:00:43;0.00;;;0.00;;
55372;SDS011;70018;47.838;16.490;2023-08-06T04:03:10;0.15;;;0.15;;
55372;SDS011;70018;47.838;16.490;2023-08-06T04:05:36;0.10;;;0.10;;
55372;SDS011;70018;47.838;16.490;2023-08-06T04:08:03;0.10;;;0.10;;
55372;SDS011;70018;47.838;16.490;2023-08-06T04:10:32;0.32;;;0.20;;
55372;SDS011;70018;47.838;16.490;2023-08-06T04:12:59;0.08;;;0.08;;
55372;SDS011;70018;47.838;16.490;2023-08-06T04:15:25;0.25;;;0.17;;
55372;SDS011;70018;47.838;16.490;2023-08-06T04:17:52;0.10;;;0.10;;
55372;SDS011;70018;47.838;16.490;2023-08-06T04:20:19;0.10;;;0.10;;
55372;SDS011;70018;47.838;16.490;2023-08-06T04:22:45;0.22;;;0.17;;
55372;SDS011;70018;47.838;16.490;2023-08-06T04:25:12;0.10;;;0.10;;
55372;SDS011;70018;47.838;16.490;2023-08-06T04:27:38;0.00;;;0.00;;
55372;SDS011;70018;47.838;16.490;2023-08-06T04:30:08;0.43;;;0.10;;
55372;SDS011;70018;47.838;16.490;2023-08-06T04:32:35;0.20;;;0.20;;
55372;SDS011;70018;47.838;16.490;2023-08-06T04:35:02;0.30;;;0.30;;
55372;SDS011;70018;47.838;16.490;2023-08-06T04:37:29;0.05;;;0.05;;
55372;SDS011;70018;47.838;16.490;2023-08-06T04:39:55;0.28;;;0.20;;
55372;SDS011;70018;47.838;16.490;2023-08-06T04:42:22;0.10;;;0.10;;
55372;SDS011;70018;47.838;16.490;2023-08-06T04:44:48;0.40;;;0.10;;
55372;SDS011;70018;47.838;16.490;2023-08-06T04:47:15;0.10;;;0.10;;
55372;SDS011;70018;47.838;16.490;2023-08-06T04:49:43;0.28;;;0.20;;
55372;SDS011;70018;47.838;16.490;2023-08-06T04:52:10;0.10;;;0.10;;
55372;SDS011;70018;47.838;16.490;2023-08-06T04:54:37;0.20;;;0.20;;
55372;SDS011;70018;47.838;16.490;2023-08-06T04:57:03;0.25;;;0.20;;
55372;SDS011;70018;47.838;16.490;2023-08-06T04:59:30;0.10;;;0.10;;
55372;SDS011;70018;47.838;16.490;2023-08-06T05:01:57;0.40;;;0.20;;
55372;SDS011;70018;47.838;16.490;2023-08-06T05:04:23;0.38;;;0.10;;
55372;SDS011;70018;47.838;16.490;2023-08-06T05:06:50;0.10;;;0.10;;
55372;SDS011;70018;47.838;16.490;2023-08-06T05:09:17;0.00;;;0.00;;
55372;SDS011;70018;47.838;16.490;2023-08-06T05:11:43;0.10;;;0.10;;
55372;SDS011;70018;47.838;16.490;2023-08-06T05:14:10;0.10;;;0.10;;
55372;SDS011;70018;47.838;16.490;2023-08-06T05:16:36;0.30;;;0.20;;
55372;SDS011;70018;47.838;16.490;2023-08-06T05:19:03;0.20;;;0.10;;
55372;SDS011;70018;47.838;16.490;2023-08-06T05:21:29;0.10;;;0.05;;
55372;SDS011;70018;47.838;16.490;2023-08-06T05:23:56;0.10;;;0.10;;
55372;SDS011;70018;47.838;16.490;2023-08-06T05:26:23;0.30;;;0.30;;
55372;SDS011;70018;47.838;16.490;2023-08-06T05:28:49;0.20;;;0.13;;
55372;SDS011;70018;47.838;16.490;2023-08-06T05:31:16;0.00;;;0.00;;
55372;SDS011;70018;47.838;16.490;2023-08-06T05:33:42;0.20;;;0.20;;
55372;SDS011;70018;47.838;16.490;2023-08-06T05:36:09;0.10;;;0.10;;
55372;SDS011;70018;47.838;16.490;2023-08-06T05:38:36;0.10;;;0.10;;
55372;SDS011;70018;47.838;16.490;2023-08-06T05:41:02;0.10;;;0.10;;
55372;SDS011;70018;47.838;16.490;2023-08-06T05:43:29;0.10;;;0.10;;
55372;SDS011;70018;47.838;16.490;2023-08-06T05:45:55;0.30;;;0.28;;
55372;SDS011;70018;47.838;16.490;2023-08-06T05:48:22;0.30;;;0.30;;
55372;SDS011;70018;47.838;16.490;2023-08-06T05:50:51;0.20;;;0.20;;
55372;SDS011;70018;47.838;16.490;2023-08-06T05:53:18;0.05;;;0.05;;
55372;SDS011;70018;47.838;16.490;2023-08-06T05:55:45;0.30;;;0.20;;
55372;SDS011;70018;47.838;16.490;2023-08-06T05:58:12;0.20;;;0.20;;
55372;SDS011;70018;47.838;16.490;2023-08-06T06:00:38;0.28;;;0.25;;
55372;SDS011;70018;47.838;16.490;2023-08-06T06:03:05;0.20;;;0.20;;
55372;SDS011;70018;47.838;16.490;2023-08-06T06:05:31;0.20;;;0.20;;
55372;SDS011;70018;47.838;16.490;2023-08-06T06:07:58;0.63;;;0.20;;
55372;SDS011;70018;47.838;16.490;2023-08-06T06:10:25;0.73;;;0.30;;
55372;SDS011;70018;47.838;16.490;2023-08-06T06:12:51;0.38;;;0.30;;
55372;SDS011;70018;47.838;16.490;2023-08-06T06:15:18;0.25;;;0.25;;
55372;SDS011;70018;47.838;16.490;2023-08-06T06:17:44;0.15;;;0.10;;
55372;SDS011;70018;47.838;16.490;2023-08-06T06:20:11;0.10;;;0.10;;
55372;SDS011;70018;47.838;16.490;2023-08-06T06:22:38;0.20;;;0.20;;
55372;SDS011;70018;47.838;16.490;2023-08-06T06:25:04;1.13;;;0.20;;
55372;SDS011;70018;47.838;16.490;2023-08-06T06:27:31;0.10;;;0.10;;
55372;SDS011;70018;47.838;16.490;2023-08-06T06:29:58;0.47;;;0.17;;
55372;SDS011;70018;47.838;16.490;2023-08-06T06:32:25;0.10;;;0.10;;
55372;SDS011;70018;47.838;16.490;2023-08-06T06:34:51;0.47;;;0.17;;
55372;SDS011;70018;47.838;16.490;2023-08-06T06:37:18;0.05;;;0.05;;
55372;SDS011;70018;47.838;16.490;2023-08-06T06:39:45;0.10;;;0.10;;
55372;SDS011;70018;47.838;16.490;2023-08-06T06:42:11;0.10;;;0.10;;
55372;SDS011;70018;47.838;16.490;2023-08-06T06:44:38;0.10;;;0.10;;
55372;SDS011;70018;47.838;16.490;2023-08-06T06:47:04;0.10;;;0.10;;
55372;SDS011;70018;47.838;16.490;2023-08-06T06:49:31;0.00;;;0.00;;
55372;SDS011;70018;47.838;16.490;2023-08-06T06:51:58;0.10;;;0.10;;
55372;SDS011;70018;47.838;16.490;2023-08-06T06:54:24;0.03;;;0.03;;
55372;SDS011;70018;47.838;16.490;2023-08-06T06:56:51;0.43;;;0.10;;
55372;SDS011;70018;47.838;16.490;2023-08-06T06:59:17;0.22;;;0.22;;
55372;SDS011;70018;47.838;16.490;2023-08-06T07:01:44;0.17;;;0.10;;
55372;SDS011;70018;47.838;16.490;2023-08-06T07:04:11;0.17;;;0.10;;
55372;SDS011;70018;47.838;16.490;2023-08-06T07:06:37;0.00;;;0.00;;
55372;SDS011;70018;47.838;16.490;2023-08-06T07:09:04;0.17;;;0.17;;
55372;SDS011;70018;47.838;16.490;2023-08-06T07:11:32;0.10;;;0.10;;
55372;SDS011;70018;47.838;16.490;2023-08-06T07:13:58;0.20;;;0.13;;
55372;SDS011;70018;47.838;16.490;2023-08-06T07:16:25;0.00;;;0.00;;
55372;SDS011;70018;47.838;16.490;2023-08-06T07:18:53;0.10;;;0.10;;
55372;SDS011;70018;47.838;16.490;2023-08-06T07:21:20;0.30;;;0.13;;
55372;SDS011;70018;47.838;16.490;2023-08-06T07:23:47;0.40;;;0.40;;
55372;SDS011;70018;47.838;16.490;2023-08-06T07:26:16;0.17;;;0.10;;
55372;SDS011;70018;47.838;16.490;2023-08-06T07:28:43;0.32;;;0.20;;
55372;SDS011;70018;47.838;16.490;2023-08-06T07:31:11;0.10;;;0.10;;
55372;SDS011;70018;47.838;16.490;2023-08-06T07:33:38;0.35;;;0.30;;
55372;SDS011;70018;47.838;16.490;2023-08-06T07:36:12;0.22;;;0.22;;
55372;SDS011;70018;47.838;16.490;2023-08-06T07:38:39;0.10;;;0.10;;
55372;SDS011;70018;47.838;16.490;2023-08-06T07:41:06;0.00;;;0.00;;
55372;SDS011;70018;47.838;16.490;2023-08-06T07:43:33;0.10;;;0.10;;
55372;SDS011;70018;47.838;16.490;2023-08-06T07:46:02;0.15;;;0.15;;
55372;SDS011;70018;47.838;16.490;2023-08-06T07:48:29;0.20;;;0.20;;
55372;SDS011;70018;47.838;16.490;2023-08-06T07:50:55;0.20;;;0.20;;
55372;SDS011;70018;47.838;16.490;2023-08-06T07:53:23;0.17;;;0.17;;
55372;SDS011;70018;47.838;16.490;2023-08-06T07:55:53;0.10;;;0.10;;
55372;SDS011;70018;47.838;16.490;2023-08-06T07:58:20;0.10;;;0.10;;
55372;SDS011;70018;47.838;16.490;2023-08-06T08:00:47;0.13;;;0.13;;
55372;SDS011;70018;47.838;16.490;2023-08-06T08:03:15;0.20;;;0.20;;
55372;SDS011;70018;47.838;16.490;2023-08-06T08:05:42;0.20;;;0.20;;
55372;SDS011;70018;47.838;16.490;2023-08-06T08:08:10;0.10;;;0.10;;
55372;SDS011;70018;47.838;16.490;2023-08-06T08:10:37;0.10;;;0.10;;
55372;SDS011;70018;47.838;16.490;2023-08-06T08:13:06;0.98;;;0.30;;
55372;SDS011;70018;47.838;16.490;2023-08-06T08:15:32;0.40;;;0.25;;
55372;SDS011;70018;47.838;16.490;2023-08-06T08:18:00;0.10;;;0.10;;
55372;SDS011;70018;47.838;16.490;2023-08-06T08:20:27;0.50;;;0.20;;
55372;SDS011;70018;47.838;16.490;2023-08-06T08:23:01;0.30;;;0.30;;
55372;SDS011;70018;47.838;16.490;2023-08-06T08:25:28;0.20;;;0.20;;
55372;SDS011;70018;47.838;16.490;2023-08-06T08:27:57;0.20;;;0.20;;
55372;SDS011;70018;47.838;16.490;2023-08-06T08:30:23;0.20;;;0.20;;
55372;SDS011;70018;47.838;16.490;2023-08-06T08:32:51;0.45;;;0.20;;
55372;SDS011;70018;47.838;16.490;2023-08-06T08:35:18;0.30;;;0.30;;
55372;SDS011;70018;47.838;16.490;2023-08-06T08:37:45;0.32;;;0.30;;
55372;SDS011;70018;47.838;16.490;2023-08-06T08:40:13;0.28;;;0.28;;
55372;SDS011;70018;47.838;16.490;2023-08-06T08:42:41;0.47;;;0.35;;
55372;SDS011;70018;47.838;16.490;2023-08-06T08:45:11;0.20;;;0.20;;
55372;SDS011;70018;47.838;16.490;2023-08-06T08:47:42;0.17;;;0.17;;
55372;SDS011;70018;47.838;16.490;2023-08-06T08:50:09;0.20;;;0.20;;
55372;SDS011;70018;47.838;16.490;2023-08-06T08:52:40;0.38;;;0.38;;
55372;SDS011;70018;47.838;16.490;2023-08-06T08:55:08;0.38;;;0.30;;
55372;SDS011;70018;47.838;16.490;2023-08-06T08:57:35;0.43;;;0.30;;
55372;SDS011;70018;47.838;16.490;2023-08-06T09:00:02;0.50;;;0.30;;
55372;SDS011;70018;47.838;16.490;2023-08-06T09:02:30;0.15;;;0.15;;
55372;SDS011;70018;47.838;16.490;2023-08-06T09:04:59;0.30;;;0.30;;
55372;SDS011;70018;47.838;16.490;2023-08-06T09:07:29;0.38;;;0.30;;
55372;SDS011;70018;47.838;16.490;2023-08-06T09:10:01;0.30;;;0.30;;
55372;SDS011;70018;47.838;16.490;2023-08-06T09:12:32;0.30;;;0.30;;
55372;SDS011;70018;47.838;16.490;2023-08-06T09:14:58;0.22;;;0.20;;
55372;SDS011;70018;47.838;16.490;2023-08-06T09:17:25;0.90;;;0.40;;
55372;SDS011;70018;47.838;16.490;2023-08-06T09:19:52;1.60;;;0.35;;
55372;SDS011;70018;47.838;16.490;2023-08-06T09:22:19;0.70;;;0.50;;
55372;SDS011;70018;47.838;16.490;2023-08-06T09:24:45;0.47;;;0.40;;
55372;SDS011;70018;47.838;16.490;2023-08-06T09:27:13;0.77;;;0.40;;
55372;SDS011;70018;47.838;16.490;2023-08-06T09:29:44;0.40;;;0.38;;
55372;SDS011;70018;47.838;16.490;2023-08-06T09:32:12;0.50;;;0.50;;
55372;SDS011;70018;47.838;16.490;2023-08-06T09:34:39;0.50;;;0.20;;
55372;SDS011;70018;47.838;16.490;2023-08-06T09:37:10;0.32;;;0.28;;
55372;SDS011;70018;47.838;16.490;2023-08-06T09:39:38;0.20;;;0.20;;
55372;SDS011;70018;47.838;16.490;2023-08-06T09:42:06;0.52;;;0.43;;
55372;SDS011;70018;47.838;16.490;2023-08-06T09:44:33;0.35;;;0.30;;
55372;SDS011;70018;47.838;16.490;2023-08-06T09:47:01;0.40;;;0.40;;
55372;SDS011;70018;47.838;16.490;2023-08-06T09:52:02;0.40;;;0.30;;
55372;SDS011;70018;47.838;16.490;2023-08-06T09:54:30;0.47;;;0.40;;
55372;SDS011;70018;47.838;16.490;2023-08-06T09:56:58;0.38;;;0.35;;
55372;SDS011;70018;47.838;16.490;2023-08-06T09:59:25;0.40;;;0.40;;
55372;SDS011;70018;47.838;16.490;2023-08-06T10:01:53;0.30;;;0.20;;
55372;SDS011;70018;47.838;16.490;2023-08-06T10:04:22;1.02;;;0.32;;
55372;SDS011;70018;47.838;16.490;2023-08-06T10:06:54;0.30;;;0.28;;
55372;SDS011;70018;47.838;16.490;2023-08-06T10:09:20;0.20;;;0.20;;
55372;SDS011;70018;47.838;16.490;2023-08-06T10:11:49;0.30;;;0.30;;
55372;SDS011;70018;47.838;16.490;2023-08-06T10:14:21;0.20;;;0.20;;
55372;SDS011;70018;47.838;16.490;2023-08-06T10:16:52;0.63;;;0.45;;
55372;SDS011;70018;47.838;16.490;2023-08-06T10:19:22;0.40;;;0.35;;
55372;SDS011;70018;47.838;16.490;2023-08-06T10:24:46;2.60;;;0.40;;
55372;SDS011;70018;47.838;16.490;2023-08-06T10:32:53;0.13;;;0.13;;
55372;SDS011;70018;47.838;16.490;2023-08-06T10:38:09;0.22;;;0.20;;
55372;SDS011;70018;47.838;16.490;2023-08-06T10:40:36;0.98;;;0.38;;
55372;SDS011;70018;47.838;16.490;2023-08-06T10:43:05;0.30;;;0.22;;
55372;SDS011;70018;47.838;16.490;2023-08-06T10:45:34;0.47;;;0.30;;
55372;SDS011;70018;47.838;16.490;2023-08-06T10:48:02;0.20;;;0.20;;
55372;SDS011;70018;47.838;16.490;2023-08-06T10:50:29;0.40;;;0.40;;
55372;SDS011;70018;47.838;16.490;2023-08-06T10:52:57;0.35;;;0.35;;
55372;SDS011;70018;47.838;16.490;2023-08-06T10:55:29;0.15;;;0.15;;
55372;SDS011;70018;47.838;16.490;2023-08-06T10:57:59;0.55;;;0.40;;
55372;SDS011;70018;47.838;16.490;2023-08-06T11:00:26;0.20;;;0.20;;
55372;SDS011;70018;47.838;16.490;2023-08-06T11:02:53;0.55;;;0.22;;
55372;SDS011;70018;47.838;16.490;2023-08-06T11:05:21;0.50;;;0.40;;
55372;SDS011;70018;47.838;16.490;2023-08-06T11:07:48;0.47;;;0.35;;
55372;SDS011;70018;47.838;16.490;2023-08-06T11:10:15;0.55;;;0.35;;
55372;SDS011;70018;47.838;16.490;2023-08-06T11:12:42;0.20;;;0.20;;
55372;SDS011;70018;47.838;16.490;2023-08-06T11:15:09;0.80;;;0.38;;
55372;SDS011;70018;47.838;16.490;2023-08-06T11:17:37;0.60;;;0.40;;
55372;SDS011;70018;47.838;16.490;2023-08-06T11:20:06;0.45;;;0.40;;
55372;SDS011;70018;47.838;16.490;2023-08-06T11:22:33;0.30;;;0.20;;
55372;SDS011;70018;47.838;16.490;2023-08-06T11:25:01;0.95;;;0.25;;
55372;SDS011;70018;47.838;16.490;2023-08-06T11:27:28;1.50;;;0.30;;
55372;SDS011;70018;47.838;16.490;2023-08-06T11:29:55;0.98;;;0.50;;
55372;SDS011;70018;47.838;16.490;2023-08-06T11:32:22;0.40;;;0.40;;
55372;SDS011;70018;47.838;16.490;2023-08-06T11:34:48;0.43;;;0.22;;
55372;SDS011;70018;47.838;16.490;2023-08-06T11:37:15;0.38;;;0.32;;
55372;SDS011;70018;47.838;16.490;2023-08-06T11:39:45;0.40;;;0.40;;
55372;SDS011;70018;47.838;16.490;2023-08-06T11:42:14;0.40;;;0.40;;
55372;SDS011;70018;47.838;16.490;2023-08-06T11:44:41;0.50;;;0.50;;
55372;SDS011;70018;47.838;16.490;2023-08-06T11:47:15;0.30;;;0.30;;
55372;SDS011;70018;47.838;16.490;2023-08-06T11:54:46;0.43;;;0.40;;
55372;SDS011;70018;47.838;16.490;2023-08-06T11:57:15;0.63;;;0.45;;
55372;SDS011;70018;47.838;16.490;2023-08-06T11:59:43;0.98;;;0.40;;
55372;SDS011;70018;47.838;16.490;2023-08-06T12:02:11;0.70;;;0.43;;
55372;SDS011;70018;47.838;16.490;2023-08-06T12:07:28;0.45;;;0.35;;
55372;SDS011;70018;47.838;16.490;2023-08-06T12:09:58;0.52;;;0.40;;
55372;SDS011;70018;47.838;16.490;2023-08-06T12:12:25;0.38;;;0.30;;
55372;SDS011;70018;47.838;16.490;2023-08-06T12:14:52;0.30;;;0.30;;
55372;SDS011;70018;47.838;16.490;2023-08-06T12:17:18;0.25;;;0.20;;
55372;SDS011;70018;47.838;16.490;2023-08-06T12:19:45;0.30;;;0.30;;
55372;SDS011;70018;47.838;16.490;2023-08-06T12:22:16;0.47;;;0.32;;
55372;SDS011;70018;47.838;16.490;2023-08-06T12:24:43;0.43;;;0.25;;
55372;SDS011;70018;47.838;16.490;2023-08-06T12:27:10;0.70;;;0.30;;
55372;SDS011;70018;47.838;16.490;2023-08-06T12:29:39;0.47;;;0.25;;
55372;SDS011;70018;47.838;16.490;2023-08-06T12:32:07;0.65;;;0.45;;
55372;SDS011;70018;47.838;16.490;2023-08-06T12:34:33;0.30;;;0.30;;
55372;SDS011;70018;47.838;16.490;2023-08-06T12:37:18;0.47;;;0.30;;
55372;SDS011;70018;47.838;16.490;2023-08-06T12:39:44;0.50;;;0.38;;
55372;SDS011;70018;47.838;16.490;2023-08-06T12:42:11;0.68;;;0.50;;
55372;SDS011;70018;47.838;16.490;2023-08-06T12:44:38;0.30;;;0.30;;
55372;SDS011;70018;47.838;16.490;2023-08-06T12:47:04;0.45;;;0.40;;
55372;SDS011;70018;47.838;16.490;2023-08-06T12:49:31;0.75;;;0.52;;
55372;SDS011;70018;47.838;16.490;2023-08-06T12:51:59;0.30;;;0.30;;
55372;SDS011;70018;47.838;16.490;2023-08-06T12:54:26;0.40;;;0.30;;
55372;SDS011;70018;47.838;16.490;2023-08-06T12:56:53;0.40;;;0.30;;
55372;SDS011;70018;47.838;16.490;2023-08-06T12:59:20;0.32;;;0.32;;
55372;SDS011;70018;47.838;16.490;2023-08-06T13:01:47;0.75;;;0.45;;
55372;SDS011;70018;47.838;16.490;2023-08-06T13:04:14;0.55;;;0.28;;
55372;SDS011;70018;47.838;16.490;2023-08-06T13:06:48;0.57;;;0.40;;
55372;SDS011;70018;47.838;16.490;2023-08-06T13:09:15;0.43;;;0.30;;
55372;SDS011;70018;47.838;16.490;2023-08-06T13:11:42;0.32;;;0.32;;
55372;SDS011;70018;47.838;16.490;2023-08-06T13:14:13;0.43;;;0.35;;
55372;SDS011;70018;47.838;16.490;2023-08-06T13:16:42;0.38;;;0.30;;
55372;SDS011;70018;47.838;16.490;2023-08-06T13:19:11;0.30;;;0.30;;
55372;SDS011;70018;47.838;16.490;2023-08-06T13:24:12;0.30;;;0.30;;
55372;SDS011;70018;47.838;16.490;2023-08-06T13:26:38;0.22;;;0.17;;
55372;SDS011;70018;47.838;16.490;2023-08-06T13:29:05;0.20;;;0.20;;
55372;SDS011;70018;47.838;16.490;2023-08-06T13:31:33;0.22;;;0.20;;
55372;SDS011;70018;47.838;16.490;2023-08-06T13:34:00;0.40;;;0.40;;
55372;SDS011;70018;47.838;16.490;2023-08-06T13:36:27;0.40;;;0.20;;
55372;SDS011;70018;47.838;16.490;2023-08-06T13:38:54;0.57;;;0.40;;
55372;SDS011;70018;47.838;16.490;2023-08-06T13:41:21;0.35;;;0.25;;
55372;SDS011;70018;47.838;16.490;2023-08-06T13:43:48;0.35;;;0.30;;
55372;SDS011;70018;47.838;16.490;2023-08-06T13:46:15;0.28;;;0.20;;
55372;SDS011;70018;47.838;16.490;2023-08-06T13:48:47;0.47;;;0.25;;
55372;SDS011;70018;47.838;16.490;2023-08-06T13:51:17;0.57;;;0.45;;
55372;SDS011;70018;47.838;16.490;2023-08-06T13:53:44;0.30;;;0.30;;
55372;SDS011;70018;47.838;16.490;2023-08-06T13:56:11;0.65;;;0.38;;
55372;SDS011;70018;47.838;16.490;2023-08-06T13:58:38;0.45;;;0.20;;
55372;SDS011;70018;47.838;16.490;2023-08-06T14:01:05;0.30;;;0.30;;
55372;SDS011;70018;47.838;16.490;2023-08-06T14:03:32;0.20;;;0.20;;
55372;SDS011;70018;47.838;16.490;2023-08-06T14:05:59;0.40;;;0.20;;
55372;SDS011;70018;47.838;16.490;2023-08-06T14:08:26;0.88;;;0.32;;
55372;SDS011;70018;47.838;16.490;2023-08-06T14:10:53;0.45;;;0.10;;
55372;SDS011;70018;47.838;16.490;2023-08-06T14:13:21;0.10;;;0.10;;
55372;SDS011;70018;47.838;16.490;2023-08-06T14:15:48;0.17;;;0.10;;
55372;SDS011;70018;47.838;16.490;2023-08-06T14:18:15;0.20;;;0.10;;
55372;SDS011;70018;47.838;16.490;2023-08-06T14:20:43;0.20;;;0.20;;
55372;SDS011;70018;47.838;16.490;2023-08-06T14:23:10;0.15;;;0.13;;
55372;SDS011;70018;47.838;16.490;2023-08-06T14:25:38;0.32;;;0.10;;
55372;SDS011;70018;47.838;16.490;2023-08-06T14:28:05;0.10;;;0.10;;
55372;SDS011;70018;47.838;16.490;2023-08-06T14:30:33;0.05;;;0.05;;
55372;SDS011;70018;47.838;16.490;2023-08-06T14:33:01;0.10;;;0.10;;
55372;SDS011;70018;47.838;16.490;2023-08-06T14:35:49;0.22;;;0.10;;
55372;SDS011;70018;47.838;16.490;2023-08-06T14:38:16;0.10;;;0.10;;
55372;SDS011;70018;47.838;16.490;2023-08-06T14:40:43;0.30;;;0.00;;
55372;SDS011;70018;47.838;16.490;2023-08-06T14:43:10;0.00;;;0.00;;
55372;SDS011;70018;47.838;16.490;2023-08-06T14:45:40;0.10;;;0.10;;
55372;SDS011;70018;47.838;16.490;2023-08-06T14:48:07;0.03;;;0.03;;
55372;SDS011;70018;47.838;16.490;2023-08-06T14:50:34;0.45;;;0.10;;
55372;SDS011;70018;47.838;16.490;2023-08-06T14:53:01;0.00;;;0.00;;
55372;SDS011;70018;47.838;16.490;2023-08-06T14:55:30;0.13;;;0.13;;
55372;SDS011;70018;47.838;16.490;2023-08-06T14:57:58;0.22;;;0.10;;
55372;SDS011;70018;47.838;16.490;2023-08-06T15:00:25;0.10;;;0.00;;
55372;SDS011;70018;47.838;16.490;2023-08-06T15:02:52;0.10;;;0.10;;